createdAt,value
2019-05-09T08:19:48.425Z,2.00
2019-05-09T08:22:21.254Z,1.87
2019-05-09T08:24:48.374Z,2.03
2019-05-09T08:27:17.598Z,1.73
2019-05-09T08:29:47.868Z,1.80
2019-05-09T08:32:18.112Z,1.73
2019-05-09T08:34:48.260Z,1.93
2019-05-09T08:37:17.576Z,2.60
2019-05-09T08:39:48.452Z,1.87
2019-05-09T08:42:17.977Z,2.13
2019-05-09T08:44:48.213Z,1.80
2019-05-09T08:47:18.502Z,1.93
2019-05-09T08:49:51.278Z,2.40
2019-05-09T08:52:20.098Z,1.77
2019-05-09T08:54:50.354Z,2.80
2019-05-09T08:57:18.773Z,1.60
2019-05-09T08:59:50.326Z,1.83
2019-05-09T09:02:22.034Z,2.10
2019-05-09T09:04:48.828Z,2.20
2019-05-09T09:07:18.968Z,8.33
2019-05-09T09:09:48.292Z,2.10
2019-05-09T09:12:26.982Z,1.90
2019-05-09T09:14:47.930Z,1.70
2019-05-09T09:17:18.703Z,2.07
2019-05-09T09:19:47.853Z,1.73
2019-05-09T09:22:17.967Z,1.50
2019-05-09T09:24:48.153Z,1.90
2019-05-09T09:27:18.195Z,1.63
2019-05-09T09:29:48.064Z,2.57
2019-05-09T09:32:19.012Z,1.60
2019-05-09T09:34:48.452Z,1.80
2019-05-09T09:37:18.511Z,1.40
2019-05-09T09:39:48.796Z,1.27
2019-05-09T09:42:19.815Z,1.50
2019-05-09T09:44:48.128Z,1.23
2019-05-09T09:47:22.803Z,1.30
2019-05-09T09:49:49.018Z,1.43
2019-05-09T09:52:18.718Z,2.07
2019-05-09T09:54:48.216Z,1.90
2019-05-09T09:57:19.014Z,1.37
2019-05-09T09:59:48.962Z,2.10
2019-05-09T10:02:19.015Z,4.80
2019-05-09T10:04:47.441Z,1.60
2019-05-09T10:07:15.883Z,1.30
2019-05-09T10:09:44.469Z,1.10
2019-05-09T10:12:12.977Z,1.43
2019-05-09T10:14:55.081Z,1.50
2019-05-09T10:17:38.675Z,1.10
2019-05-09T10:20:13.066Z,1.50
2019-05-09T10:22:46.817Z,1.10
2019-05-09T10:25:11.696Z,1.43
2019-05-09T10:27:40.141Z,2.00
2019-05-09T10:30:09.267Z,1.57
2019-05-09T10:32:38.419Z,1.20
2019-05-09T10:35:08.752Z,1.93
2019-05-09T10:37:39.265Z,1.90
2019-05-09T10:40:07.816Z,1.40
2019-05-09T10:42:38.083Z,1.30
2019-05-09T10:45:24.730Z,1.53
2019-05-09T10:47:53.162Z,1.63
2019-05-09T10:50:21.673Z,2.17
2019-05-09T10:52:50.184Z,1.90
2019-05-09T10:55:19.091Z,1.33
2019-05-09T10:57:52.414Z,1.60
2019-05-09T11:00:18.502Z,1.50
2019-05-09T11:02:48.345Z,2.70
2019-05-09T11:05:18.441Z,2.17
2019-05-09T11:07:49.327Z,1.97
2019-05-09T11:10:25.725Z,2.23
2019-05-09T11:12:47.854Z,1.50
2019-05-09T11:15:17.787Z,2.17
2019-05-09T11:17:47.435Z,2.07
2019-05-09T11:20:19.176Z,2.07
2019-05-09T11:22:46.640Z,1.80
2019-05-09T11:25:15.136Z,1.57
2019-05-09T11:27:43.576Z,1.70
2019-05-09T11:30:12.287Z,1.57
2019-05-09T11:32:40.722Z,1.90
2019-05-09T11:35:09.376Z,2.00
2019-05-09T11:37:38.377Z,1.57
2019-05-09T11:40:07.348Z,1.70
2019-05-09T11:42:37.926Z,1.60
2019-05-09T11:45:07.640Z,1.80
2019-05-09T11:47:42.640Z,1.77
2019-05-09T11:50:08.774Z,1.40
2019-05-09T11:52:38.279Z,1.80
2019-05-09T11:55:09.328Z,1.60
2019-05-09T11:57:38.432Z,1.87
2019-05-09T12:00:08.478Z,1.70
2019-05-09T12:02:38.451Z,2.70
2019-05-09T12:05:08.743Z,1.67
2019-05-09T12:07:38.011Z,1.80
2019-05-09T12:10:08.024Z,2.27
2019-05-09T12:12:38.813Z,1.97
2019-05-09T12:15:10.087Z,1.73
2019-05-09T12:17:50.917Z,1.60
2019-05-09T12:20:13.247Z,2.03
2019-05-09T12:22:39.442Z,1.33
2019-05-09T12:25:08.662Z,1.40
2019-05-09T12:27:37.258Z,1.80
2019-05-09T12:30:07.800Z,1.50
2019-05-09T12:32:38.433Z,1.33
2019-05-09T12:35:08.861Z,1.47
2019-05-09T12:37:37.832Z,1.53
2019-05-09T12:40:08.325Z,1.70
2019-05-09T12:42:39.114Z,1.00
2019-05-09T12:45:08.338Z,1.60
2019-05-09T12:47:39.729Z,1.40
2019-05-09T12:50:08.633Z,1.23
2019-05-09T12:52:39.219Z,1.30
2019-05-09T12:55:08.511Z,1.70
2019-05-09T12:57:38.748Z,1.87
2019-05-09T13:00:08.947Z,1.20
2019-05-09T13:02:38.810Z,1.30
2019-05-09T13:05:08.153Z,2.03
2019-05-09T13:07:40.058Z,1.67
2019-05-09T13:10:08.987Z,1.07
2019-05-09T13:12:38.785Z,1.30
2019-05-09T13:15:08.983Z,1.10
2019-05-09T13:17:44.763Z,0.97
2019-05-09T13:20:17.664Z,1.00
2019-05-09T13:22:47.664Z,1.17
2019-05-09T13:25:18.507Z,0.87
2019-05-09T13:27:47.875Z,1.00
2019-05-09T13:30:18.892Z,0.70
2019-05-09T13:32:48.443Z,0.73
2019-05-09T13:35:19.790Z,0.70
2019-05-09T13:37:49.121Z,0.70
2019-05-09T13:40:18.805Z,0.70
2019-05-09T13:42:49.033Z,0.70
2019-05-09T13:45:18.657Z,0.80
2019-05-09T13:47:49.457Z,0.80
2019-05-09T13:50:18.631Z,0.70
2019-05-09T13:52:47.994Z,0.80
2019-05-09T13:55:17.778Z,0.80
2019-05-09T13:57:48.621Z,0.90
2019-05-09T14:00:18.398Z,0.90
2019-05-09T14:02:48.798Z,1.00
2019-05-09T14:05:18.988Z,0.90
2019-05-09T14:07:49.217Z,0.80
2019-05-09T14:10:17.960Z,0.90
2019-05-09T14:13:03.658Z,1.00
2019-05-09T14:15:18.445Z,0.97
2019-05-09T14:17:52.599Z,0.83
2019-05-09T14:20:17.993Z,0.80
2019-05-09T14:22:48.988Z,0.80
2019-05-09T14:25:19.640Z,0.90
2019-05-09T14:27:49.771Z,0.80
2019-05-09T14:30:19.779Z,0.80
2019-05-09T14:32:49.699Z,0.90
2019-05-09T14:35:18.563Z,0.90
2019-05-09T14:37:48.732Z,0.80
2019-05-09T14:40:17.713Z,0.80
2019-05-09T14:42:46.266Z,1.57
2019-05-09T14:45:14.985Z,0.77
2019-05-09T14:47:43.531Z,0.87
2019-05-09T14:50:12.203Z,1.10
2019-05-09T14:52:40.653Z,0.70
2019-05-09T14:55:09.408Z,0.70
2019-05-09T14:57:38.494Z,1.30
2019-05-09T15:00:08.861Z,0.97
2019-05-09T15:02:38.876Z,1.00
2019-05-09T15:05:09.551Z,1.00
2019-05-09T15:07:38.866Z,1.17
2019-05-09T15:10:08.784Z,1.07
2019-05-09T15:12:38.996Z,1.10
2019-05-09T15:15:08.772Z,1.00
2019-05-09T15:17:37.955Z,0.90
2019-05-09T15:20:08.850Z,1.10
2019-05-09T15:22:38.762Z,1.10
2019-05-09T15:25:08.904Z,1.43
2019-05-09T15:27:38.437Z,0.90
2019-05-09T15:30:08.855Z,1.10
2019-05-09T15:32:37.854Z,1.00
2019-05-09T15:35:08.993Z,1.00
2019-05-09T15:37:38.517Z,1.00
2019-05-09T15:40:08.851Z,1.10
2019-05-09T15:42:38.963Z,1.43
2019-05-09T15:45:08.829Z,1.40
2019-05-09T15:47:38.045Z,1.13
2019-05-09T15:50:19.238Z,1.03
2019-05-09T15:52:38.361Z,1.80
2019-05-09T15:55:09.483Z,1.10
2019-05-09T15:57:37.945Z,1.00
2019-05-09T16:00:12.342Z,1.20
2019-05-09T16:02:40.859Z,1.00
2019-05-09T16:05:10.701Z,1.10
2019-05-09T16:07:39.343Z,1.00
2019-05-09T16:10:08.778Z,1.10
2019-05-09T16:12:38.451Z,1.03
2019-05-09T16:15:07.973Z,0.80
2019-05-09T16:17:39.293Z,0.90
2019-05-09T16:20:08.467Z,0.90
2019-05-09T16:22:39.167Z,0.90
2019-05-09T16:25:09.093Z,2.37
2019-05-09T16:27:38.051Z,1.63
2019-05-09T16:30:08.524Z,1.00
2019-05-09T16:32:37.768Z,1.20
2019-05-09T16:35:08.099Z,1.00
2019-05-09T16:37:57.262Z,1.10
2019-05-09T16:40:08.432Z,1.00
2019-05-09T16:42:38.153Z,1.13
2019-05-09T16:45:08.231Z,1.00
2019-05-09T16:47:36.883Z,1.20
2019-05-09T16:50:12.079Z,1.50
2019-05-09T16:52:43.737Z,1.83
2019-05-09T16:55:12.323Z,1.20
2019-05-09T16:57:40.832Z,1.33
2019-05-09T17:00:11.652Z,1.30
2019-05-09T17:02:40.143Z,1.33
2019-05-09T17:05:08.923Z,1.23
2019-05-09T17:07:38.363Z,1.47
2019-05-09T17:10:08.402Z,1.67
2019-05-09T17:12:37.068Z,1.20
2019-05-09T17:15:08.651Z,1.27
2019-05-09T17:17:38.565Z,1.50
2019-05-09T17:20:09.126Z,1.47
2019-05-09T17:23:08.380Z,1.37
2019-05-09T17:25:28.000Z,1.30
2019-05-09T17:27:59.133Z,1.20
2019-05-09T17:30:28.431Z,1.60
2019-05-09T17:32:58.297Z,1.33
2019-05-09T17:35:27.933Z,1.40
2019-05-09T17:37:56.765Z,1.70
2019-05-09T17:40:25.265Z,2.37
2019-05-09T17:42:53.666Z,2.90
2019-05-09T17:45:22.248Z,2.47
2019-05-09T17:47:50.746Z,2.07
2019-05-09T17:50:19.329Z,1.83
2019-05-09T17:52:48.146Z,2.10
2019-05-09T17:55:18.190Z,2.03
2019-05-09T17:57:47.997Z,1.50
2019-05-09T18:00:21.742Z,2.37
2019-05-09T18:02:48.602Z,2.50
2019-05-09T18:05:17.573Z,5.20
2019-05-09T18:07:47.903Z,4.90
2019-05-09T18:10:18.320Z,5.77
2019-05-09T18:12:47.929Z,4.40
2019-05-09T18:15:18.624Z,4.60
2019-05-09T18:17:48.038Z,4.17
2019-05-09T18:20:17.579Z,5.40
2019-05-09T18:22:47.918Z,5.10
2019-05-09T18:25:18.794Z,3.80
2019-05-09T18:27:48.862Z,3.03
2019-05-09T18:30:19.028Z,2.80
2019-05-09T18:32:54.878Z,3.53
2019-05-09T18:35:25.174Z,2.60
2019-05-09T18:37:54.015Z,2.47
2019-05-09T18:40:22.702Z,2.30
2019-05-09T18:42:51.399Z,2.10
2019-05-09T18:45:20.757Z,2.17
2019-05-09T18:47:49.203Z,2.70
2019-05-09T18:50:18.059Z,2.30
2019-05-09T18:52:46.510Z,2.67
2019-05-09T18:55:16.675Z,2.20
2019-05-09T18:57:45.183Z,2.60
2019-05-09T19:00:15.800Z,2.80
2019-05-09T19:02:44.396Z,2.17
2019-05-09T19:05:13.282Z,2.53
2019-05-09T19:07:41.776Z,2.90
2019-05-09T19:10:10.938Z,2.53
2019-05-09T19:12:39.443Z,2.43
2019-05-09T19:15:10.468Z,2.60
2019-05-09T19:17:55.577Z,2.73
2019-05-09T19:20:25.727Z,2.10
2019-05-09T19:22:54.158Z,2.30
2019-05-09T19:25:22.603Z,1.90
2019-05-09T19:27:51.015Z,1.70
2019-05-09T19:30:19.674Z,1.73
2019-05-09T19:32:48.151Z,1.97
2019-05-09T19:35:16.570Z,1.63
2019-05-09T19:37:45.015Z,1.30
2019-05-09T19:40:19.623Z,1.80
2019-05-09T19:42:44.132Z,1.73
2019-05-09T19:45:14.358Z,1.20
2019-05-09T19:47:42.903Z,1.80
2019-05-09T19:50:12.080Z,1.53
2019-05-09T19:52:40.519Z,1.43
2019-05-09T19:55:09.184Z,1.40
2019-05-09T19:57:37.696Z,1.60
2019-05-09T20:00:09.802Z,1.50
2019-05-09T20:02:38.289Z,1.53
2019-05-09T20:05:07.873Z,1.57
2019-05-09T20:07:36.378Z,2.73
2019-05-09T20:10:11.071Z,1.30
2019-05-09T20:12:50.698Z,1.43
2019-05-09T20:15:20.853Z,1.50
2019-05-09T20:17:49.639Z,1.40
2019-05-09T20:20:18.151Z,1.57
2019-05-09T20:22:52.862Z,1.60
2019-05-09T20:25:16.999Z,1.70
2019-05-09T20:27:45.530Z,1.70
2019-05-09T20:30:14.451Z,1.40
2019-05-09T20:32:42.939Z,1.63
2019-05-09T20:35:11.836Z,1.57
2019-05-09T20:37:40.534Z,1.40
2019-05-09T20:40:09.538Z,1.50
2019-05-09T20:42:38.254Z,2.00
2019-05-09T20:45:07.516Z,2.43
2019-05-09T20:47:36.163Z,2.40
2019-05-09T20:50:06.520Z,2.20
2019-05-09T20:52:35.287Z,2.10
2019-05-09T20:55:04.752Z,2.60
2019-05-09T20:57:33.451Z,2.33
2019-05-09T21:00:02.160Z,2.83
2019-05-09T21:02:30.968Z,2.70
2019-05-09T21:04:59.752Z,2.30
2019-05-09T21:07:28.399Z,2.30
2019-05-09T21:09:57.050Z,2.40
2019-05-09T21:12:25.761Z,2.57
2019-05-09T21:14:54.385Z,2.33
2019-05-09T21:17:23.039Z,2.20
2019-05-09T21:19:51.798Z,2.30
2019-05-09T21:22:20.689Z,2.07
2019-05-09T21:24:49.374Z,2.13
2019-05-09T21:27:18.088Z,2.63
2019-05-09T21:29:46.709Z,2.67
2019-05-09T21:32:15.553Z,2.90
2019-05-09T21:34:44.027Z,3.07
2019-05-09T21:37:13.995Z,3.50
2019-05-09T21:39:42.586Z,2.47
2019-05-09T21:42:11.007Z,4.00
2019-05-09T21:44:39.444Z,3.20
2019-05-09T21:47:07.883Z,3.17
2019-05-09T21:49:36.334Z,3.07
2019-05-09T21:52:04.956Z,4.20
2019-05-09T21:54:33.397Z,3.70
2019-05-09T21:57:01.811Z,4.80
2019-05-09T21:59:30.267Z,4.60
2019-05-09T22:01:58.923Z,4.67
2019-05-09T22:04:28.240Z,4.60
2019-05-09T22:06:56.680Z,5.23
2019-05-09T22:09:25.108Z,5.20
2019-05-09T22:11:53.593Z,6.90
2019-05-09T22:14:22.039Z,5.80
2019-05-09T22:16:50.639Z,5.90
2019-05-09T22:19:19.069Z,5.80
2019-05-09T22:21:47.571Z,6.63
2019-05-09T22:24:15.986Z,6.67
2019-05-09T22:26:44.439Z,6.80
2019-05-09T22:29:12.930Z,6.27
2019-05-09T22:31:41.395Z,7.37
2019-05-09T22:34:09.859Z,7.00
2019-05-09T22:36:38.277Z,7.00
2019-05-09T22:39:08.128Z,6.43
2019-05-09T22:41:36.709Z,7.53
2019-05-09T22:44:05.211Z,6.83
2019-05-09T22:46:33.867Z,6.37
2019-05-09T22:49:02.342Z,5.87
2019-05-09T22:51:30.890Z,4.90
2019-05-09T22:54:11.622Z,5.43
2019-05-09T22:56:29.561Z,4.53
2019-05-09T22:58:57.982Z,3.60
2019-05-09T23:01:26.481Z,2.43
2019-05-09T23:03:54.920Z,2.83
2019-05-09T23:06:23.359Z,2.63
2019-05-09T23:08:51.805Z,3.00
2019-05-09T23:11:20.659Z,2.40
2019-05-09T23:13:52.228Z,2.60
2019-05-09T23:16:26.165Z,2.20
2019-05-09T23:18:54.937Z,3.40
2019-05-09T23:21:25.134Z,2.33
2019-05-09T23:24:07.530Z,2.93
2019-05-09T23:26:36.047Z,2.30
2019-05-09T23:29:04.544Z,2.97
2019-05-09T23:31:37.438Z,2.70
2019-05-09T23:34:05.927Z,3.40
2019-05-09T23:36:34.388Z,4.60
2019-05-09T23:39:13.475Z,4.27
2019-05-09T23:41:41.922Z,5.33
2019-05-09T23:44:10.339Z,4.97
2019-05-09T23:46:38.771Z,6.33
2019-05-09T23:49:07.493Z,6.77
2019-05-09T23:51:45.576Z,7.17
2019-05-09T23:54:47.901Z,7.47
2019-05-09T23:57:28.831Z,9.03
